sensor_id;sensor_type;location;lat;lon;timestamp;pressure;altitude;pressure_sealevel;temperature;humidity
4745;BME280;2386;42.138;24.746;2023-02-28T00:00:45;100121.53;;;11.73;93.88
4745;BME280;2386;42.138;24.746;2023-02-28T00:03:11;100115.94;;;11.68;94.68
4745;BME280;2386;42.138;24.746;2023-02-28T00:05:36;100131.31;;;11.81;93.85
4745;BME280;2386;42.138;24.746;2023-02-28T00:08:02;100123.78;;;11.76;93.90
4745;BME280;2386;42.138;24.746;2023-02-28T00:10:29;100132.56;;;11.97;93.18
4745;BME280;2386;42.138;24.746;2023-02-28T00:13:00;100131.28;;;11.99;92.38
4745;BME280;2386;42.138;24.746;2023-02-28T00:15:26;100134.38;;;12.03;91.49
4745;BME280;2386;42.138;24.746;2023-02-28T00:17:52;100131.56;;;12.09;90.85
4745;BME280;2386;42.138;24.746;2023-02-28T00:20:18;100131.78;;;12.26;89.50
4745;BME280;2386;42.138;24.746;2023-02-28T00:22:45;100122.41;;;12.22;89.80
4745;BME280;2386;42.138;24.746;2023-02-28T00:25:14;100129.81;;;12.15;90.30
4745;BME280;2386;42.138;24.746;2023-02-28T00:27:40;100135.25;;;12.15;90.45
4745;BME280;2386;42.138;24.746;2023-02-28T00:30:07;100129.38;;;12.18;90.82
4745;BME280;2386;42.138;24.746;2023-02-28T00:32:33;100129.81;;;12.15;90.41
4745;BME280;2386;42.138;24.746;2023-02-28T00:34:59;100124.38;;;12.15;90.55
4745;BME280;2386;42.138;24.746;2023-02-28T00:37:25;100116.47;;;11.95;92.46
4745;BME280;2386;42.138;24.746;2023-02-28T00:39:50;100114.78;;;11.82;93.24
4745;BME280;2386;42.138;24.746;2023-02-28T00:42:15;100115.63;;;11.76;94.11
4745;BME280;2386;42.138;24.746;2023-02-28T00:44:41;100119.41;;;11.75;94.44
4745;BME280;2386;42.138;24.746;2023-02-28T00:47:06;100122.34;;;11.74;95.22
4745;BME280;2386;42.138;24.746;2023-02-28T00:49:32;100120.81;;;11.84;93.60
4745;BME280;2386;42.138;24.746;2023-02-28T00:51:57;100126.38;;;11.90;92.63
4745;BME280;2386;42.138;24.746;2023-02-28T00:54:23;100114.31;;;11.86;93.75
4745;BME280;2386;42.138;24.746;2023-02-28T00:56:50;100110.81;;;11.97;93.12
4745;BME280;2386;42.138;24.746;2023-02-28T00:59:16;100127.19;;;12.08;93.20
4745;BME280;2386;42.138;24.746;2023-02-28T01:01:43;100117.28;;;12.14;92.31
4745;BME280;2386;42.138;24.746;2023-02-28T01:04:09;100129.38;;;12.18;91.24
4745;BME280;2386;42.138;24.746;2023-02-28T01:06:34;100133.75;;;12.19;91.75
4745;BME280;2386;42.138;24.746;2023-02-28T01:09:01;100138.38;;;12.18;92.14
4745;BME280;2386;42.138;24.746;2023-02-28T01:11:26;100124.84;;;12.12;90.89
4745;BME280;2386;42.138;24.746;2023-02-28T01:13:52;100146.06;;;12.22;92.41
4745;BME280;2386;42.138;24.746;2023-02-28T01:16:18;100141.44;;;12.22;91.35
4745;BME280;2386;42.138;24.746;2023-02-28T01:18:43;100154.97;;;12.29;90.01
4745;BME280;2386;42.138;24.746;2023-02-28T01:21:11;100160.94;;;12.19;91.51
4745;BME280;2386;42.138;24.746;2023-02-28T01:23:38;100152.34;;;12.22;90.94
4745;BME280;2386;42.138;24.746;2023-02-28T01:26:09;100155.50;;;12.37;90.02
4745;BME280;2386;42.138;24.746;2023-02-28T01:28:35;100150.13;;;12.31;89.80
4745;BME280;2386;42.138;24.746;2023-02-28T01:31:01;100153.91;;;12.30;90.89
4745;BME280;2386;42.138;24.746;2023-02-28T01:33:26;100157.59;;;12.35;90.24
4745;BME280;2386;42.138;24.746;2023-02-28T01:36:04;100145.59;;;12.25;90.99
4745;BME280;2386;42.138;24.746;2023-02-28T01:38:30;100159.81;;;12.27;89.88
4745;BME280;2386;42.138;24.746;2023-02-28T01:40:56;100173.19;;;12.28;90.35
4745;BME280;2386;42.138;24.746;2023-02-28T01:43:30;100169.41;;;12.29;89.93
4745;BME280;2386;42.138;24.746;2023-02-28T01:45:58;100178.03;;;12.26;90.71
4745;BME280;2386;42.138;24.746;2023-02-28T01:48:36;100180.13;;;12.24;90.18
4745;BME280;2386;42.138;24.746;2023-02-28T01:51:08;100185.72;;;12.29;90.64
4745;BME280;2386;42.138;24.746;2023-02-28T01:53:41;100185.28;;;12.14;91.18
4745;BME280;2386;42.138;24.746;2023-02-28T01:56:10;100198.03;;;12.13;92.02
4745;BME280;2386;42.138;24.746;2023-02-28T01:58:37;100194.66;;;12.18;90.85
4745;BME280;2386;42.138;24.746;2023-02-28T02:01:03;100193.44;;;12.14;90.88
4745;BME280;2386;42.138;24.746;2023-02-28T02:03:30;100195.25;;;12.20;89.54
4745;BME280;2386;42.138;24.746;2023-02-28T02:05:56;100212.78;;;12.24;88.85
4745;BME280;2386;42.138;24.746;2023-02-28T02:08:26;100223.81;;;12.11;88.66
4745;BME280;2386;42.138;24.746;2023-02-28T02:10:58;100229.81;;;11.95;88.59
4745;BME280;2386;42.138;24.746;2023-02-28T02:18:43;100222.69;;;11.75;90.31
4745;BME280;2386;42.138;24.746;2023-02-28T02:35:19;100226.09;;;11.46;90.95
4745;BME280;2386;42.138;24.746;2023-02-28T02:38:08;100234.34;;;11.33;91.41
4745;BME280;2386;42.138;24.746;2023-02-28T02:40:43;100236.88;;;11.28;92.48
4745;BME280;2386;42.138;24.746;2023-02-28T02:43:17;100248.13;;;11.31;92.09
4745;BME280;2386;42.138;24.746;2023-02-28T02:45:59;100234.00;;;11.23;93.99
4745;BME280;2386;42.138;24.746;2023-02-28T02:48:31;100242.31;;;11.28;95.30
4745;BME280;2386;42.138;24.746;2023-02-28T02:51:01;100249.84;;;11.26;96.53
4745;BME280;2386;42.138;24.746;2023-02-28T02:53:33;100254.44;;;11.25;96.44
4745;BME280;2386;42.138;24.746;2023-02-28T02:56:01;100247.91;;;11.08;100.00
4745;BME280;2386;42.138;24.746;2023-02-28T02:58:34;100246.19;;;11.13;100.00
4745;BME280;2386;42.138;24.746;2023-02-28T03:01:02;100261.66;;;11.13;100.00
4745;BME280;2386;42.138;24.746;2023-02-28T03:03:30;100273.28;;;11.20;100.00
4745;BME280;2386;42.138;24.746;2023-02-28T03:05:59;100263.25;;;11.20;100.00
4745;BME280;2386;42.138;24.746;2023-02-28T03:08:25;100272.34;;;11.33;100.00
4745;BME280;2386;42.138;24.746;2023-02-28T03:10:59;100273.66;;;11.24;100.00
4745;BME280;2386;42.138;24.746;2023-02-28T03:17:18;100277.19;;;11.31;100.00
4745;BME280;2386;42.138;24.746;2023-02-28T03:24:49;100286.94;;;11.38;100.00
4745;BME280;2386;42.138;24.746;2023-02-28T03:27:24;100287.69;;;11.52;100.00
4745;BME280;2386;42.138;24.746;2023-02-28T03:30:00;100294.22;;;11.44;100.00
4745;BME280;2386;42.138;24.746;2023-02-28T03:35:19;100297.09;;;11.49;100.00
4745;BME280;2386;42.138;24.746;2023-02-28T03:37:50;100293.78;;;11.47;100.00
4745;BME280;2386;42.138;24.746;2023-02-28T03:40:21;100289.00;;;11.43;100.00
4745;BME280;2386;42.138;24.746;2023-02-28T03:42:51;100293.66;;;11.36;100.00
4745;BME280;2386;42.138;24.746;2023-02-28T03:45:22;100287.69;;;11.52;100.00
4745;BME280;2386;42.138;24.746;2023-02-28T03:47:58;100296.94;;;11.44;100.00
4745;BME280;2386;42.138;24.746;2023-02-28T03:53:01;100295.13;;;11.63;100.00
4745;BME280;2386;42.138;24.746;2023-02-28T03:55:34;100302.41;;;11.38;100.00
4745;BME280;2386;42.138;24.746;2023-02-28T04:00:35;100310.28;;;11.46;100.00
4745;BME280;2386;42.138;24.746;2023-02-28T04:03:03;100315.38;;;11.36;100.00
4745;BME280;2386;42.138;24.746;2023-02-28T04:05:29;100321.13;;;11.52;100.00
4745;BME280;2386;42.138;24.746;2023-02-28T04:08:06;100320.25;;;11.59;100.00
4745;BME280;2386;42.138;24.746;2023-02-28T04:10:32;100325.72;;;11.52;100.00
4745;BME280;2386;42.138;24.746;2023-02-28T04:12:58;100332.94;;;11.33;100.00
4745;BME280;2386;42.138;24.746;2023-02-28T04:15:23;100338.41;;;11.27;100.00
4745;BME280;2386;42.138;24.746;2023-02-28T04:17:49;100344.72;;;11.20;100.00
4745;BME280;2386;42.138;24.746;2023-02-28T04:20:15;100348.84;;;11.30;100.00
4745;BME280;2386;42.138;24.746;2023-02-28T04:22:40;100347.41;;;11.20;100.00
4745;BME280;2386;42.138;24.746;2023-02-28T04:25:06;100350.88;;;11.41;100.00
4745;BME280;2386;42.138;24.746;2023-02-28T04:27:32;100347.53;;;11.39;100.00
4745;BME280;2386;42.138;24.746;2023-02-28T04:29:57;100349.03;;;11.35;100.00
4745;BME280;2386;42.138;24.746;2023-02-28T04:32:23;100335.91;;;11.25;100.00
4745;BME280;2386;42.138;24.746;2023-02-28T04:34:48;100340.91;;;11.28;100.00
4745;BME280;2386;42.138;24.746;2023-02-28T04:37:13;100342.97;;;11.33;100.00
4745;BME280;2386;42.138;24.746;2023-02-28T04:39:39;100340.47;;;11.31;100.00
4745;BME280;2386;42.138;24.746;2023-02-28T04:42:05;100334.47;;;11.23;100.00
4745;BME280;2386;42.138;24.746;2023-02-28T04:44:30;100331.66;;;11.36;100.00
4745;BME280;2386;42.138;24.746;2023-02-28T04:46:56;100338.91;;;11.48;100.00
4745;BME280;2386;42.138;24.746;2023-02-28T04:49:22;100355.38;;;11.53;100.00
4745;BME280;2386;42.138;24.746;2023-02-28T04:51:47;100333.06;;;11.45;100.00
4745;BME280;2386;42.138;24.746;2023-02-28T04:54:15;100341.41;;;11.50;100.00
4745;BME280;2386;42.138;24.746;2023-02-28T04:56:41;100331.16;;;11.52;100.00
4745;BME280;2386;42.138;24.746;2023-02-28T04:59:06;100343.63;;;11.60;100.00
4745;BME280;2386;42.138;24.746;2023-02-28T05:01:33;100355.00;;;11.50;100.00
4745;BME280;2386;42.138;24.746;2023-02-28T05:04:00;100368.47;;;11.32;100.00
4745;BME280;2386;42.138;24.746;2023-02-28T05:06:28;100372.78;;;11.46;100.00
4745;BME280;2386;42.138;24.746;2023-02-28T05:08:54;100372.19;;;11.37;100.00
4745;BME280;2386;42.138;24.746;2023-02-28T05:11:28;100379.38;;;11.18;100.00
4745;BME280;2386;42.138;24.746;2023-02-28T05:14:13;100378.13;;;11.21;100.00
4745;BME280;2386;42.138;24.746;2023-02-28T05:16:39;100368.50;;;11.25;100.00
4745;BME280;2386;42.138;24.746;2023-02-28T05:19:04;100372.81;;;11.39;100.00
4745;BME280;2386;42.138;24.746;2023-02-28T05:21:32;100373.81;;;11.45;100.00
4745;BME280;2386;42.138;24.746;2023-02-28T05:24:00;100378.47;;;11.38;100.00
4745;BME280;2386;42.138;24.746;2023-02-28T05:26:26;100382.41;;;11.42;100.00
4745;BME280;2386;42.138;24.746;2023-02-28T05:28:52;100379.34;;;11.32;100.00
4745;BME280;2386;42.138;24.746;2023-02-28T05:31:18;100400.63;;;11.35;100.00
4745;BME280;2386;42.138;24.746;2023-02-28T05:33:44;100395.16;;;11.41;100.00
4745;BME280;2386;42.138;24.746;2023-02-28T05:36:09;100397.00;;;11.09;100.00
4745;BME280;2386;42.138;24.746;2023-02-28T05:38:35;100407.28;;;10.94;100.00
4745;BME280;2386;42.138;24.746;2023-02-28T05:41:04;100410.69;;;10.76;100.00
4745;BME280;2386;42.138;24.746;2023-02-28T05:43:29;100417.53;;;10.85;100.00
4745;BME280;2386;42.138;24.746;2023-02-28T05:45:54;100411.88;;;10.94;100.00
4745;BME280;2386;42.138;24.746;2023-02-28T05:48:20;100418.31;;;11.06;100.00
4745;BME280;2386;42.138;24.746;2023-02-28T05:50:45;100414.47;;;11.20;100.00
4745;BME280;2386;42.138;24.746;2023-02-28T05:53:11;100404.50;;;11.14;100.00
4745;BME280;2386;42.138;24.746;2023-02-28T05:55:37;100419.47;;;11.23;100.00
4745;BME280;2386;42.138;24.746;2023-02-28T05:58:03;100420.06;;;11.32;100.00
4745;BME280;2386;42.138;24.746;2023-02-28T06:00:28;100423.56;;;11.45;100.00
4745;BME280;2386;42.138;24.746;2023-02-28T06:02:54;100426.25;;;11.52;100.00
4745;BME280;2386;42.138;24.746;2023-02-28T06:05:23;100420.88;;;11.39;100.00
4745;BME280;2386;42.138;24.746;2023-02-28T06:07:48;100424.00;;;11.42;100.00
4745;BME280;2386;42.138;24.746;2023-02-28T06:10:14;100419.00;;;11.39;100.00
4745;BME280;2386;42.138;24.746;2023-02-28T06:12:40;100439.84;;;11.45;100.00
4745;BME280;2386;42.138;24.746;2023-02-28T06:15:07;100434.44;;;11.39;100.00
4745;BME280;2386;42.138;24.746;2023-02-28T06:17:36;100430.69;;;11.40;100.00
4745;BME280;2386;42.138;24.746;2023-02-28T06:20:02;100432.91;;;11.56;100.00
4745;BME280;2386;42.138;24.746;2023-02-28T06:22:27;100445.41;;;11.64;100.00
4745;BME280;2386;42.138;24.746;2023-02-28T06:24:53;100439.41;;;11.55;100.00
4745;BME280;2386;42.138;24.746;2023-02-28T06:27:19;100433.59;;;11.45;100.00
4745;BME280;2386;42.138;24.746;2023-02-28T06:29:45;100434.84;;;11.42;100.00
4745;BME280;2386;42.138;24.746;2023-02-28T06:32:11;100432.22;;;11.67;100.00
4745;BME280;2386;42.138;24.746;2023-02-28T06:34:36;100452.97;;;11.55;100.00
4745;BME280;2386;42.138;24.746;2023-02-28T06:37:02;100442.72;;;11.12;100.00
4745;BME280;2386;42.138;24.746;2023-02-28T06:39:29;100458.75;;;11.20;100.00
4745;BME280;2386;42.138;24.746;2023-02-28T06:41:54;100446.00;;;11.21;100.00
4745;BME280;2386;42.138;24.746;2023-02-28T06:44:20;100442.00;;;11.30;100.00
4745;BME280;2386;42.138;24.746;2023-02-28T06:46:46;100444.09;;;11.35;100.00
4745;BME280;2386;42.138;24.746;2023-02-28T06:49:11;100442.97;;;11.49;100.00
4745;BME280;2386;42.138;24.746;2023-02-28T06:51:41;100440.44;;;11.54;100.00
4745;BME280;2386;42.138;24.746;2023-02-28T06:54:07;100454.00;;;11.61;100.00
4745;BME280;2386;42.138;24.746;2023-02-28T06:56:36;100448.72;;;11.72;100.00
4745;BME280;2386;42.138;24.746;2023-02-28T06:59:02;100456.03;;;11.72;100.00
4745;BME280;2386;42.138;24.746;2023-02-28T07:01:28;100455.19;;;11.71;100.00
4745;BME280;2386;42.138;24.746;2023-02-28T07:03:54;100458.16;;;11.63;100.00
4745;BME280;2386;42.138;24.746;2023-02-28T07:06:23;100456.13;;;11.52;100.00
4745;BME280;2386;42.138;24.746;2023-02-28T07:08:50;100463.84;;;11.55;100.00
4745;BME280;2386;42.138;24.746;2023-02-28T07:11:16;100460.81;;;11.76;100.00
4745;BME280;2386;42.138;24.746;2023-02-28T07:13:41;100451.38;;;11.86;100.00
4745;BME280;2386;42.138;24.746;2023-02-28T07:16:09;100464.50;;;11.89;99.79
4745;BME280;2386;42.138;24.746;2023-02-28T07:18:36;100474.25;;;12.03;99.13
4745;BME280;2386;42.138;24.746;2023-02-28T07:21:03;100470.91;;;12.01;99.56
4745;BME280;2386;42.138;24.746;2023-02-28T07:23:29;100464.38;;;11.83;100.00
4745;BME280;2386;42.138;24.746;2023-02-28T07:25:55;100474.25;;;12.03;99.01
4745;BME280;2386;42.138;24.746;2023-02-28T07:28:20;100470.44;;;12.10;98.52
4745;BME280;2386;42.138;24.746;2023-02-28T07:30:45;100468.03;;;11.96;98.78
4745;BME280;2386;42.138;24.746;2023-02-28T07:33:11;100467.16;;;12.02;97.27
4745;BME280;2386;42.138;24.746;2023-02-28T07:35:37;100481.75;;;12.07;97.38
4745;BME280;2386;42.138;24.746;2023-02-28T07:38:02;100485.91;;;12.10;97.46
4745;BME280;2386;42.138;24.746;2023-02-28T07:40:28;100475.75;;;11.99;98.39
4745;BME280;2386;42.138;24.746;2023-02-28T07:42:54;100485.06;;;11.84;98.52
4745;BME280;2386;42.138;24.746;2023-02-28T07:45:19;100488.97;;;11.89;99.06
4745;BME280;2386;42.138;24.746;2023-02-28T07:47:45;100479.47;;;12.04;97.52
4745;BME280;2386;42.138;24.746;2023-02-28T07:50:13;100478.34;;;12.18;96.38
4745;BME280;2386;42.138;24.746;2023-02-28T07:52:39;100474.81;;;12.11;96.56
4745;BME280;2386;42.138;24.746;2023-02-28T07:55:07;100481.22;;;12.24;96.15
4745;BME280;2386;42.138;24.746;2023-02-28T07:57:33;100483.81;;;12.12;97.55
4745;BME280;2386;42.138;24.746;2023-02-28T07:59:58;100481.63;;;12.27;95.76
4745;BME280;2386;42.138;24.746;2023-02-28T08:02:24;100486.44;;;11.94;97.04
4745;BME280;2386;42.138;24.746;2023-02-28T08:04:49;100478.47;;;11.99;97.66
4745;BME280;2386;42.138;24.746;2023-02-28T08:07:16;100484.94;;;11.98;99.07
4745;BME280;2386;42.138;24.746;2023-02-28T08:09:42;100487.09;;;11.89;100.00
4745;BME280;2386;42.138;24.746;2023-02-28T08:12:09;100490.22;;;11.93;99.99
4745;BME280;2386;42.138;24.746;2023-02-28T08:14:35;100500.31;;;11.86;99.37
4745;BME280;2386;42.138;24.746;2023-02-28T08:17:01;100486.03;;;11.90;99.60
4745;BME280;2386;42.138;24.746;2023-02-28T08:19:27;100494.59;;;11.94;99.55
4745;BME280;2386;42.138;24.746;2023-02-28T08:21:54;100489.16;;;11.94;98.84
4745;BME280;2386;42.138;24.746;2023-02-28T08:24:19;100490.59;;;11.96;100.00
4745;BME280;2386;42.138;24.746;2023-02-28T08:26:44;100493.09;;;11.98;100.00
4745;BME280;2386;42.138;24.746;2023-02-28T08:29:10;100483.69;;;12.00;99.58
4745;BME280;2386;42.138;24.746;2023-02-28T08:31:35;100486.22;;;11.95;100.00
4745;BME280;2386;42.138;24.746;2023-02-28T08:34:13;100484.13;;;11.97;100.00
4745;BME280;2386;42.138;24.746;2023-02-28T08:36:39;100488.72;;;11.97;99.37
4745;BME280;2386;42.138;24.746;2023-02-28T08:39:05;100485.09;;;12.09;99.44
4745;BME280;2386;42.138;24.746;2023-02-28T08:41:31;100491.44;;;12.28;96.60
4745;BME280;2386;42.138;24.746;2023-02-28T08:43:56;100498.88;;;12.14;97.67
4745;BME280;2386;42.138;24.746;2023-02-28T08:46:24;100489.16;;;12.25;98.67
4745;BME280;2386;42.138;24.746;2023-02-28T08:48:56;100492.41;;;12.40;97.45
4745;BME280;2386;42.138;24.746;2023-02-28T08:51:25;100496.84;;;12.60;95.19
4745;BME280;2386;42.138;24.746;2023-02-28T08:53:55;100498.03;;;12.64;94.63
4745;BME280;2386;42.138;24.746;2023-02-28T08:56:23;100501.47;;;12.59;95.35
4745;BME280;2386;42.138;24.746;2023-02-28T08:58:49;100500.03;;;12.75;93.16
4745;BME280;2386;42.138;24.746;2023-02-28T09:01:20;100500.81;;;12.82;92.22
4745;BME280;2386;42.138;24.746;2023-02-28T09:03:47;100499.88;;;12.70;94.00
4745;BME280;2386;42.138;24.746;2023-02-28T09:06:13;100504.91;;;12.91;91.03
4745;BME280;2386;42.138;24.746;2023-02-28T09:08:40;100503.88;;;12.92;90.85
4745;BME280;2386;42.138;24.746;2023-02-28T09:11:06;100493.81;;;12.68;92.03
4745;BME280;2386;42.138;24.746;2023-02-28T09:13:32;100501.81;;;12.63;91.62
4745;BME280;2386;42.138;24.746;2023-02-28T09:15:59;100501.38;;;12.66;92.66
4745;BME280;2386;42.138;24.746;2023-02-28T09:18:25;100486.59;;;12.80;91.30
4745;BME280;2386;42.138;24.746;2023-02-28T09:20:57;100491.31;;;12.91;90.55
4745;BME280;2386;42.138;24.746;2023-02-28T09:23:24;100495.97;;;12.84;90.45
4745;BME280;2386;42.138;24.746;2023-02-28T09:25:52;100492.81;;;12.87;88.90
4745;BME280;2386;42.138;24.746;2023-02-28T09:28:18;100495.19;;;12.59;91.48
4745;BME280;2386;42.138;24.746;2023-02-28T09:30:46;100483.47;;;12.33;93.51
4745;BME280;2386;42.138;24.746;2023-02-28T09:33:13;100483.63;;;12.38;93.25
4745;BME280;2386;42.138;24.746;2023-02-28T09:35:39;100483.47;;;12.33;95.08
4745;BME280;2386;42.138;24.746;2023-02-28T09:38:05;100474.03;;;12.36;93.88
4745;BME280;2386;42.138;24.746;2023-02-28T09:40:54;100472.44;;;12.22;95.68
4745;BME280;2386;42.138;24.746;2023-02-28T09:43:24;100478.50;;;12.24;95.73
4745;BME280;2386;42.138;24.746;2023-02-28T09:46:05;100482.97;;;12.11;97.13
4745;BME280;2386;42.138;24.746;2023-02-28T09:48:36;100480.47;;;12.10;98.94
4745;BME280;2386;42.138;24.746;2023-02-28T09:51:43;100483.06;;;12.30;96.89
4745;BME280;2386;42.138;24.746;2023-02-28T09:54:15;100482.22;;;12.29;97.42
4745;BME280;2386;42.138;24.746;2023-02-28T09:56:45;100479.50;;;12.29;96.94
4745;BME280;2386;42.138;24.746;2023-02-28T09:59:18;100483.00;;;12.36;95.10
4745;BME280;2386;42.138;24.746;2023-02-28T10:01:57;100468.06;;;12.21;96.44
4745;BME280;2386;42.138;24.746;2023-02-28T10:09:57;100448.81;;;12.22;95.58
4745;BME280;2386;42.138;24.746;2023-02-28T10:12:24;100449.13;;;12.07;97.17
4745;BME280;2386;42.138;24.746;2023-02-28T10:14:52;100455.78;;;11.87;100.00
4745;BME280;2386;42.138;24.746;2023-02-28T10:17:26;100450.00;;;12.01;100.00
4745;BME280;2386;42.138;24.746;2023-02-28T10:20:11;100452.00;;;12.12;99.38
4745;BME280;2386;42.138;24.746;2023-02-28T10:23:19;100446.09;;;12.22;97.78
4745;BME280;2386;42.138;24.746;2023-02-28T10:25:52;100440.03;;;11.89;99.06
4745;BME280;2386;42.138;24.746;2023-02-28T10:28:19;100433.63;;;11.83;100.00
4745;BME280;2386;42.138;24.746;2023-02-28T10:30:52;100439.47;;;11.87;100.00
4745;BME280;2386;42.138;24.746;2023-02-28T10:33:28;100446.81;;;11.79;100.00
4745;BME280;2386;42.138;24.746;2023-02-28T10:35:54;100438.63;;;11.86;100.00
4745;BME280;2386;42.138;24.746;2023-02-28T10:38:41;100429.13;;;11.95;100.00
4745;BME280;2386;42.138;24.746;2023-02-28T10:41:26;100438.63;;;12.11;100.00
4745;BME280;2386;42.138;24.746;2023-02-28T10:44:20;100430.50;;;11.79;100.00
4745;BME280;2386;42.138;24.746;2023-02-28T10:46:46;100442.41;;;11.85;100.00
4745;BME280;2386;42.138;24.746;2023-02-28T10:49:15;100432.81;;;11.76;100.00
4745;BME280;2386;42.138;24.746;2023-02-28T10:51:42;100434.53;;;11.64;100.00
4745;BME280;2386;42.138;24.746;2023-02-28T10:54:16;100431.34;;;11.80;100.00
4745;BME280;2386;42.138;24.746;2023-02-28T10:56:42;100427.81;;;11.73;100.00
4745;BME280;2386;42.138;24.746;2023-02-28T11:01:39;100421.47;;;12.10;100.00
4745;BME280;2386;42.138;24.746;2023-02-28T11:04:31;100422.97;;;12.06;99.04
4745;BME280;2386;42.138;24.746;2023-02-28T11:07:00;100427.75;;;12.11;99.55
4745;BME280;2386;42.138;24.746;2023-02-28T11:09:36;100416.31;;;12.02;99.54
4745;BME280;2386;42.138;24.746;2023-02-28T11:12:06;100425.47;;;11.76;100.00
4745;BME280;2386;42.138;24.746;2023-02-28T11:14:49;100419.53;;;11.93;100.00
4745;BME280;2386;42.138;24.746;2023-02-28T11:17:27;100411.06;;;11.76;100.00
4745;BME280;2386;42.138;24.746;2023-02-28T11:19:55;100410.44;;;11.74;100.00
4745;BME280;2386;42.138;24.746;2023-02-28T11:22:25;100413.38;;;11.79;100.00
4745;BME280;2386;42.138;24.746;2023-02-28T11:24:55;100414.25;;;11.66;100.00
4745;BME280;2386;42.138;24.746;2023-02-28T11:29:50;100408.56;;;11.74;100.00
4745;BME280;2386;42.138;24.746;2023-02-28T11:32:20;100409.38;;;11.81;100.00
4745;BME280;2386;42.138;24.746;2023-02-28T11:35:00;100406.28;;;11.71;100.00
4745;BME280;2386;42.138;24.746;2023-02-28T11:37:27;100410.00;;;11.83;100.00
4745;BME280;2386;42.138;24.746;2023-02-28T11:39:53;100415.97;;;11.61;100.00
4745;BME280;2386;42.138;24.746;2023-02-28T11:45:15;100399.47;;;11.56;100.00
4745;BME280;2386;42.138;24.746;2023-02-28T11:47:47;100397.94;;;11.66;100.00
4745;BME280;2386;42.138;24.746;2023-02-28T11:52:55;100406.16;;;11.53;100.00
4745;BME280;2386;42.138;24.746;2023-02-28T11:55:25;100408.03;;;11.59;100.00
4745;BME280;2386;42.138;24.746;2023-02-28T12:01:01;100401.81;;;11.45;100.00
4745;BME280;2386;42.138;24.746;2023-02-28T12:06:28;100391.97;;;11.51;100.00
4745;BME280;2386;42.138;24.746;2023-02-28T12:14:50;100381.16;;;11.44;100.00
4745;BME280;2386;42.138;24.746;2023-02-28T12:20:09;100388.53;;;11.31;100.00
4745;BME280;2386;42.138;24.746;2023-02-28T12:27:39;100389.84;;;11.15;100.00
4745;BME280;2386;42.138;24.746;2023-02-28T12:35:48;100380.84;;;10.70;100.00
4745;BME280;2386;42.138;24.746;2023-02-28T12:38:18;100376.97;;;11.04;100.00
4745;BME280;2386;42.138;24.746;2023-02-28T12:40:50;100370.69;;;11.10;100.00
4745;BME280;2386;42.138;24.746;2023-02-28T12:43:18;100374.41;;;11.15;100.00
4745;BME280;2386;42.138;24.746;2023-02-28T12:45:58;100371.69;;;11.15;100.00
4745;BME280;2386;42.138;24.746;2023-02-28T12:48:52;100368.59;;;11.12;100.00
4745;BME280;2386;42.138;24.746;2023-02-28T12:51:15;100366.00;;;11.24;100.00
4745;BME280;2386;42.138;24.746;2023-02-28T12:54:07;100366.53;;;11.07;100.00
4745;BME280;2386;42.138;24.746;2023-02-28T12:59:26;100356.56;;;10.88;100.00
4745;BME280;2386;42.138;24.746;2023-02-28T13:02:01;100368.88;;;10.97;100.00
4745;BME280;2386;42.138;24.746;2023-02-28T13:05:12;100362.16;;;11.00;100.00
4745;BME280;2386;42.138;24.746;2023-02-28T13:07:56;100363.53;;;11.15;100.00
4745;BME280;2386;42.138;24.746;2023-02-28T13:10:39;100358.38;;;11.07;100.00
4745;BME280;2386;42.138;24.746;2023-02-28T13:13:05;100368.88;;;11.35;100.00
4745;BME280;2386;42.138;24.746;2023-02-28T13:15:31;100364.34;;;11.23;100.00
4745;BME280;2386;42.138;24.746;2023-02-28T13:18:00;100362.78;;;11.02;100.00
4745;BME280;2386;42.138;24.746;2023-02-28T13:20:30;100361.53;;;11.04;100.00
4745;BME280;2386;42.138;24.746;2023-02-28T13:22:57;100354.88;;;10.94;100.00
4745;BME280;2386;42.138;24.746;2023-02-28T13:27:55;100366.53;;;11.07;100.00
4745;BME280;2386;42.138;24.746;2023-02-28T13:36:09;100352.19;;;10.87;100.00
4745;BME280;2386;42.138;24.746;2023-02-28T13:38:56;100361.56;;;10.91;100.00
4745;BME280;2386;42.138;24.746;2023-02-28T13:44:20;100350.34;;;10.81;100.00
4745;BME280;2386;42.138;24.746;2023-02-28T14:00:28;100355.09;;;10.28;100.00
4745;BME280;2386;42.138;24.746;2023-02-28T14:05:34;100359.03;;;10.25;100.00
4745;BME280;2386;42.138;24.746;2023-02-28T14:08:20;100366.97;;;10.20;100.00
4745;BME280;2386;42.138;24.746;2023-02-28T14:10:51;100365.28;;;10.19;100.00
4745;BME280;2386;42.138;24.746;2023-02-28T14:15:58;100368.84;;;10.39;100.00
4745;BME280;2386;42.138;24.746;2023-02-28T14:18:35;100370.94;;;10.31;100.00
4745;BME280;2386;42.138;24.746;2023-02-28T14:34:58;100374.28;;;10.26;100.00
4745;BME280;2386;42.138;24.746;2023-02-28T14:37:33;100373.63;;;10.04;100.00
4745;BME280;2386;42.138;24.746;2023-02-28T14:40:02;100371.31;;;10.01;100.00
4745;BME280;2386;42.138;24.746;2023-02-28T14:42:32;100370.69;;;9.93;100.00
4745;BME280;2386;42.138;24.746;2023-02-28T14:45:01;100371.53;;;10.00;100.00
4745;BME280;2386;42.138;24.746;2023-02-28T14:47:30;100367.16;;;9.85;100.00
4745;BME280;2386;42.138;24.746;2023-02-28T14:49:57;100372.16;;;9.88;100.00
4745;BME280;2386;42.138;24.746;2023-02-28T14:52:25;100374.25;;;9.93;100.00
4745;BME280;2386;42.138;24.746;2023-02-28T14:55:27;100374.88;;;10.02;100.00
4745;BME280;2386;42.138;24.746;2023-02-28T15:01:05;100377.16;;;9.78;100.00
4745;BME280;2386;42.138;24.746;2023-02-28T15:03:37;100388.81;;;9.85;100.00
4745;BME280;2386;42.138;24.746;2023-02-28T15:06:14;100393.41;;;9.92;100.00
4745;BME280;2386;42.138;24.746;2023-02-28T15:08:41;100386.34;;;9.97;100.00
4745;BME280;2386;42.138;24.746;2023-02-28T15:11:15;100390.09;;;9.96;100.00
4745;BME280;2386;42.138;24.746;2023-02-28T15:13:46;100391.34;;;10.07;100.00